Time;durP1;ratioP1;P1;durP2;ratioP2;P2;SDS_P1;SDS_P2;PMS_P1;PMS_P2;Temp;Humidity;BMP_temperature;BMP_pressure;BME280_temperature;BME280_humidity;BME280_pressure;Samples;Min_cycle;Max_cycle;Signal;HPM_P1;HPM_P2
2022/11/02 00:00:32;;;;;;;56.35;53.83;;;;;;;11.68;96.26;101146.34;5057603;28;20532;-75
2022/11/02 00:02:57;;;;;;;63.83;61.42;;;;;;;11.63;96.45;101159.19;5076208;28;20599;-75
2022/11/02 00:05:23;;;;;;;69.85;67.30;;;;;;;11.63;97.10;101151.25;5058259;28;20089;-75
2022/11/02 00:07:50;;;;;;;75.03;72.18;;;;;;;11.59;96.84;101147.25;5056914;28;20040;-75
2022/11/02 00:10:16;;;;;;;81.05;77.47;;;;;;;11.58;97.90;101148.22;5072676;28;20035;-75
2022/11/02 00:12:43;;;;;;;85.28;81.70;;;;;;;11.59;97.72;101149.88;5059629;28;20143;-75
2022/11/02 00:15:09;;;;;;;82.00;78.78;;;;;;;11.56;97.50;101150.16;5077925;28;20488;-76
2022/11/02 00:17:36;;;;;;;146.90;140.85;;;;;;;11.50;97.86;101149.78;5076840;28;20097;-75
2022/11/02 00:20:02;;;;;;;104.93;100.82;;;;;;;11.57;97.77;101165.06;5075208;28;20036;-75
2022/11/02 00:22:28;;;;;;;72.13;69.25;;;;;;;11.51;97.52;101146.16;5076547;28;20883;-75
2022/11/02 00:24:54;;;;;;;148.98;142.85;;;;;;;11.55;97.74;101161.72;5059126;28;20078;-75
2022/11/02 00:27:21;;;;;;;84.55;80.97;;;;;;;11.54;99.05;101152.97;5040690;28;20401;-75
2022/11/02 00:29:46;;;;;;;88.18;84.75;;;;;;;11.49;98.82;101156.03;5058550;28;20039;-75
2022/11/02 00:32:12;;;;;;;83.38;80.40;;;;;;;11.51;99.38;101169.13;5059627;28;20031;-75
2022/11/02 00:34:38;;;;;;;151.32;145.48;;;;;;;11.40;99.25;101158.75;5058185;28;20035;-75
2022/11/02 00:37:03;;;;;;;94.70;91.30;;;;;;;11.45;99.98;101170.56;5075249;28;20408;-75
2022/11/02 00:39:28;;;;;;;184.73;177.20;;;;;;;11.36;100.00;101171.41;5075553;28;20529;-75
2022/11/02 00:41:54;;;;;;;210.90;201.90;;;;;;;11.00;100.00;101181.88;5058320;28;20028;-75
2022/11/02 00:44:19;;;;;;;152.85;146.73;;;;;;;10.79;100.00;101189.16;5042392;28;20040;-75
2022/11/02 00:46:44;;;;;;;296.50;282.05;;;;;;;10.44;100.00;101188.81;5074482;28;20020;-75
2022/11/02 00:49:10;;;;;;;54.72;52.72;;;;;;;10.37;100.00;101178.97;5026381;28;20028;-75
2022/11/02 00:51:35;;;;;;;48.17;46.33;;;;;;;10.28;100.00;101192.00;5058971;28;20028;-76
2022/11/02 00:54:00;;;;;;;244.57;231.70;;;;;;;10.20;100.00;101186.56;5042042;28;20174;-77
2022/11/02 00:56:26;;;;;;;117.00;112.45;;;;;;;10.04;100.00;101173.94;5076644;28;20042;-76
2022/11/02 00:58:51;;;;;;;36.75;35.38;;;;;;;10.11;100.00;101181.31;5040125;28;20035;-76
2022/11/02 01:01:17;;;;;;;44.28;42.30;;;;;;;10.07;100.00;101178.09;5054177;28;20028;-76
2022/11/02 01:03:42;;;;;;;60.20;57.53;;;;;;;10.01;100.00;101181.28;5041424;28;20028;-76
2022/11/02 01:06:13;;;;;;;46.83;44.85;;;;;;;9.98;100.00;101166.59;5078044;28;20047;-76
2022/11/02 01:08:39;;;;;;;;;;;;;;;9.96;100.00;101163.25;5076874;28;20029;-76
2022/11/02 01:11:22;;;;;;;150.68;144.48;;;;;;;9.88;100.00;101166.56;5078997;28;19923;-76
2022/11/02 01:13:49;;;;;;;40.10;38.70;;;;;;;9.85;100.00;101158.94;5076475;28;20036;-76
2022/11/02 01:16:15;;;;;;;58.88;56.25;;;;;;;9.93;100.00;101174.09;5080853;28;20387;-76
2022/11/02 01:18:40;;;;;;;70.47;67.93;;;;;;;9.90;100.00;101163.78;5063551;28;20094;-76
2022/11/02 01:21:06;;;;;;;79.93;76.88;;;;;;;9.92;100.00;101158.41;5076308;28;20583;-76
2022/11/02 01:23:33;;;;;;;80.68;77.65;;;;;;;9.89;100.00;101165.59;5079388;28;20036;-77
2022/11/02 01:26:02;;;;;;;92.97;89.63;;;;;;;9.73;100.00;101128.41;5061353;28;20036;-76
2022/11/02 01:28:28;;;;;;;94.30;90.95;;;;;;;9.81;100.00;101147.00;5080598;28;20028;-76
2022/11/02 01:30:53;;;;;;;110.03;105.97;;;;;;;9.74;100.00;101137.16;5060759;28;20442;-76
2022/11/02 01:33:18;;;;;;;115.10;110.55;;;;;;;9.72;100.00;101142.56;5060806;28;20403;-76
2022/11/02 01:35:44;;;;;;;86.70;83.60;;;;;;;9.68;100.00;101138.53;5042674;28;20036;-76
2022/11/02 01:38:09;;;;;;;101.07;97.53;;;;;;;9.63;100.00;101133.69;5061178;28;20071;-76
2022/11/02 01:40:36;;;;;;;118.13;113.72;;;;;;;9.62;100.00;101128.53;5078392;28;20020;-75
2022/11/02 01:43:21;;;;;;;106.43;102.60;;;;;;;9.60;100.00;101139.22;5062926;28;20036;-75
2022/11/02 01:45:49;;;;;;;151.05;145.45;;;;;;;9.59;100.00;101127.00;5079681;28;20098;-75
2022/11/02 01:48:14;;;;;;;123.40;118.78;;;;;;;9.58;100.00;101124.50;5077806;28;20059;-75
2022/11/02 01:50:40;;;;;;;116.13;111.85;;;;;;;9.57;100.00;101125.50;5059671;28;20098;-75
2022/11/02 01:53:06;;;;;;;135.77;130.85;;;;;;;9.36;100.00;101102.69;5079431;28;20064;-76
2022/11/02 01:55:33;;;;;;;236.50;226.27;;;;;;;9.38;100.00;101113.94;5063292;28;20028;-76
2022/11/02 01:58:07;;;;;;;103.78;100.07;;;;;;;9.46;100.00;101136.97;5060249;28;20036;-76
2022/11/02 02:00:32;;;;;;;220.98;211.02;;;;;;;9.34;100.00;101127.50;5061569;28;20032;-76
2022/11/02 02:03:07;;;;;;;183.23;176.10;;;;;;;9.33;100.00;101116.16;5029211;28;20035;-75
2022/11/02 02:05:37;;;;;;;137.30;132.23;;;;;;;9.46;100.00;101145.72;5077170;28;20555;-75
2022/11/02 02:08:03;;;;;;;141.80;136.48;;;;;;;9.44;100.00;101138.91;5062174;28;20066;-75
2022/11/02 02:10:28;;;;;;;114.35;110.22;;;;;;;9.52;100.00;101146.16;5078367;28;20080;-75
2022/11/02 02:12:54;;;;;;;185.65;178.07;;;;;;;9.55;100.00;101151.13;5055736;28;20049;-75
2022/11/02 02:15:27;;;;;;;123.70;118.13;;;;;;;9.57;100.00;101192.19;5057161;28;20184;-76
2022/11/02 02:18:06;;;;;;;109.28;105.30;;;;;;;9.62;100.00;101163.63;5058793;28;20033;-76
2022/11/02 02:20:53;;;;;;;147.18;141.70;;;;;;;9.58;100.00;101156.13;5057465;28;20029;-76
2022/11/02 02:23:45;;;;;;;107.65;103.82;;;;;;;9.53;100.00;101137.25;5056006;28;20531;-76
2022/11/02 02:26:45;;;;;;;104.18;100.10;;;;;;;9.29;100.00;101056.81;5058011;28;20033;-76
2022/11/02 02:29:22;;;;;;;95.10;91.78;;;;;;;9.21;100.00;101070.66;5054982;28;20025;-76
2022/11/02 02:32:01;;;;;;;107.53;103.68;;;;;;;9.17;100.00;101084.25;5056169;28;20104;-76
2022/11/02 02:34:37;;;;;;;91.25;88.03;;;;;;;9.20;100.00;101092.69;5056551;28;20073;-76
2022/11/02 02:37:07;;;;;;;156.27;150.40;;;;;;;9.20;100.00;101089.22;5058338;28;20556;-76
2022/11/02 02:39:41;;;;;;;110.17;106.17;;;;;;;9.32;100.00;101097.84;5057947;28;20020;-75
2022/11/02 02:42:15;;;;;;;107.70;103.65;;;;;;;9.44;100.00;101107.28;5055910;28;20360;-76
2022/11/02 02:44:47;;;;;;;110.18;106.10;;;;;;;9.47;100.00;101084.16;5059269;28;20033;-76
2022/11/02 02:47:20;;;;;;;92.00;87.55;;;;;;;9.61;100.00;101093.44;5059443;28;20039;-76
2022/11/02 02:49:58;;;;;;;117.72;113.55;;;;;;;9.61;100.00;101097.91;5059175;28;20444;-76
2022/11/02 02:52:27;;;;;;;103.72;99.63;;;;;;;9.60;100.00;101102.34;5055913;28;20105;-76
2022/11/02 02:54:56;;;;;;;93.75;90.35;;;;;;;9.53;100.00;101106.47;5058999;28;20082;-76
2022/11/02 02:57:26;;;;;;;100.07;96.47;;;;;;;9.43;100.00;101105.66;5058747;28;20025;-76
2022/11/02 02:59:51;;;;;;;102.18;98.55;;;;;;;9.52;100.00;101114.53;5057320;28;20094;-76
2022/11/02 03:02:16;;;;;;;100.50;96.90;;;;;;;9.51;100.00;101102.31;5051498;28;20480;-76
2022/11/02 03:04:41;;;;;;;95.60;92.20;;;;;;;9.51;100.00;101100.50;5057090;28;20028;-76
2022/11/02 03:07:12;;;;;;;104.22;100.53;;;;;;;9.51;100.00;101100.50;5058614;28;20040;-76
2022/11/02 03:09:48;;;;;;;125.03;120.43;;;;;;;9.56;100.00;101108.00;5058065;28;20108;-76
2022/11/02 03:12:19;;;;;;;109.93;106.00;;;;;;;9.59;100.00;101105.09;5065375;28;20051;-76
2022/11/02 03:15:06;;;;;;;107.90;103.55;;;;;;;9.60;100.00;101101.47;5058156;28;20043;-76
2022/11/02 03:17:39;;;;;;;106.05;102.15;;;;;;;9.54;100.00;101078.31;5061142;28;20016;-76
2022/11/02 03:20:22;;;;;;;112.40;108.40;;;;;;;9.67;100.00;101102.63;5060710;28;20108;-76
2022/11/02 03:23:07;;;;;;;139.32;133.50;;;;;;;9.67;100.00;101099.97;5060797;28;20498;-76
2022/11/02 03:25:38;;;;;;;105.78;101.95;;;;;;;9.78;100.00;101099.84;5057464;28;20040;-76
2022/11/02 03:28:25;;;;;;;202.63;194.18;;;;;;;9.88;100.00;101095.38;5076122;28;20078;-76
2022/11/02 03:31:02;;;;;;;80.60;77.68;;;;;;;9.87;100.00;101088.47;5059803;28;20111;-76
2022/11/02 03:33:37;;;;;;;70.45;67.93;;;;;;;9.81;100.00;101083.75;5076365;28;20464;-76
2022/11/02 03:36:11;;;;;;;121.28;116.20;;;;;;;9.73;100.00;101065.16;5076291;28;20446;-76
2022/11/02 03:38:42;;;;;;;47.47;45.67;;;;;;;9.70;100.00;101065.44;5060300;28;20028;-76
2022/11/02 03:41:08;;;;;;;49.20;47.40;;;;;;;9.67;100.00;101060.44;5078658;28;20031;-76
2022/11/02 03:43:36;;;;;;;60.80;58.58;;;;;;;9.74;100.00;101066.81;5076197;28;20399;-76
2022/11/02 03:46:03;;;;;;;41.03;39.58;;;;;;;9.76;100.00;101064.88;5074569;28;20115;-76
2022/11/02 03:48:33;;;;;;;46.13;44.30;;;;;;;9.68;100.00;101062.09;5058801;28;20029;-76
2022/11/02 03:51:04;;;;;;;52.38;50.47;;;;;;;9.77;100.00;101068.34;5077195;28;20782;-76
2022/11/02 03:53:40;;;;;;;36.67;35.15;;;;;;;9.77;100.00;101070.97;5076747;28;20087;-76
2022/11/02 03:56:11;;;;;;;34.72;33.30;;;;;;;9.70;100.00;101075.97;5058048;28;20956;-76
2022/11/02 03:58:36;;;;;;;57.40;55.20;;;;;;;9.67;100.00;101065.72;5077826;28;20062;-75
2022/11/02 04:01:07;;;;;;;40.08;38.17;;;;;;;9.58;100.00;101062.13;5077819;28;20443;-75
2022/11/02 04:03:36;;;;;;;83.43;80.17;;;;;;;9.61;100.00;101071.53;5060527;28;20020;-76
2022/11/02 04:06:01;;;;;;;45.50;43.85;;;;;;;9.46;100.00;101063.22;5074500;28;20119;-76
2022/11/02 04:08:39;;;;;;;39.15;37.63;;;;;;;9.42;100.00;101065.28;5044191;28;20111;-76
2022/11/02 04:16:33;;;;;;;59.03;56.67;;;;;;;9.45;100.00;101098.41;5073776;28;20086;-75
2022/11/02 04:27:10;;;;;;;95.90;91.85;;;;;;;9.34;100.00;101091.50;5057408;28;20050;-76
2022/11/02 04:29:35;;;;;;;56.08;53.75;;;;;;;9.59;100.00;101134.91;5039444;28;20110;-75
2022/11/02 04:32:01;;;;;;;46.53;44.35;;;;;;;9.44;100.00;101102.84;5039215;28;20103;-76
2022/11/02 04:34:26;;;;;;;47.80;45.58;;;;;;;9.55;100.00;101136.16;5038750;28;20487;-75
2022/11/02 04:36:51;;;;;;;115.45;110.60;;;;;;;9.43;100.00;101121.44;5056077;28;20071;-75
2022/11/02 04:39:17;;;;;;;308.05;289.83;;;;;;;9.60;100.00;101144.50;5061576;28;20032;-75
2022/11/02 04:41:42;;;;;;;51.55;49.55;;;;;;;9.64;100.00;101145.03;5059636;28;20067;-75
2022/11/02 04:44:10;;;;;;;144.18;138.10;;;;;;;9.70;100.00;101139.22;5044192;28;20032;-75
2022/11/02 04:46:37;;;;;;;45.53;43.90;;;;;;;9.66;100.00;101122.03;5029219;28;20036;-76
2022/11/02 04:49:03;;;;;;;41.58;39.90;;;;;;;9.72;100.00;101139.94;5079080;28;20027;-75
2022/11/02 04:51:29;;;;;;;41.78;40.28;;;;;;;9.83;100.00;101158.25;5052743;28;20040;-76
2022/11/02 04:53:56;;;;;;;95.05;90.97;;;;;;;9.77;100.00;101161.44;5046453;28;20036;-76
2022/11/02 04:56:23;;;;;;;162.27;154.02;;;;;;;9.55;100.00;101145.88;5061315;28;20032;-76
2022/11/02 04:58:54;;;;;;;58.55;56.45;;;;;;;9.62;100.00;101146.97;5041398;28;20063;-76
2022/11/02 05:01:21;;;;;;;77.65;74.53;;;;;;;9.56;100.00;101156.28;5075743;28;20151;-76
2022/11/02 05:03:47;;;;;;;87.75;84.53;;;;;;;9.37;100.00;101122.00;5077589;28;20040;-76
2022/11/02 05:06:13;;;;;;;113.97;109.75;;;;;;;9.40;100.00;101125.16;5060011;28;20110;-76
2022/11/02 05:08:39;;;;;;;170.48;163.35;;;;;;;9.39;100.00;101141.13;5058692;28;20131;-76
2022/11/02 05:11:05;;;;;;;82.93;79.60;;;;;;;9.47;100.00;101157.94;5078454;28;20403;-77
2022/11/02 05:13:31;;;;;;;168.68;161.40;;;;;;;9.51;100.00;101149.75;5059361;28;20476;-76
2022/11/02 05:15:58;;;;;;;174.13;167.20;;;;;;;9.45;100.00;101153.72;5060945;28;20025;-76
2022/11/02 05:18:24;;;;;;;115.55;111.40;;;;;;;9.37;100.00;101128.09;5079317;28;20459;-76
2022/11/02 05:20:51;;;;;;;97.05;93.50;;;;;;;9.51;100.00;101157.63;5059845;28;20036;-76
2022/11/02 05:23:18;;;;;;;71.72;68.32;;;;;;;9.38;100.00;101135.00;5059097;28;20051;-76
2022/11/02 05:26:01;;;;;;;69.63;67.03;;;;;;;9.42;100.00;101146.13;5059281;28;20032;-76
2022/11/02 05:28:28;;;;;;;90.40;86.68;;;;;;;9.52;100.00;101154.06;5059943;28;20032;-76
2022/11/02 05:30:54;;;;;;;87.30;83.70;;;;;;;9.41;100.00;101140.03;5074971;28;20017;-76
2022/11/02 05:33:20;;;;;;;174.20;166.60;;;;;;;9.54;100.00;101160.84;5078901;28;20503;-77
2022/11/02 05:35:46;;;;;;;147.48;141.65;;;;;;;9.48;100.00;101146.41;5075934;28;20055;-76
2022/11/02 05:38:12;;;;;;;113.82;109.45;;;;;;;9.46;100.00;101172.06;5058437;28;20024;-76
2022/11/02 05:40:39;;;;;;;133.05;128.07;;;;;;;9.31;100.00;101157.59;5061124;28;20098;-76
2022/11/02 05:43:06;;;;;;;250.52;238.68;;;;;;;9.40;100.00;101175.22;5043157;28;20028;-76
2022/11/02 05:45:32;;;;;;;109.63;105.60;;;;;;;9.40;100.00;101193.66;5076630;28;20093;-77
2022/11/02 05:48:01;;;;;;;111.60;107.45;;;;;;;9.26;100.00;101167.72;5044184;28;20906;-76
2022/11/02 05:50:27;;;;;;;188.02;180.77;;;;;;;9.41;100.00;101182.16;5044524;28;20119;-76
2022/11/02 05:52:53;;;;;;;105.00;101.20;;;;;;;9.39;100.00;101168.28;5073697;28;22465;-76
2022/11/02 05:55:19;;;;;;;169.60;163.23;;;;;;;9.33;100.00;101179.38;5027917;28;20134;-76
2022/11/02 05:57:51;;;;;;;100.63;96.93;;;;;;;9.39;100.00;101184.09;5063363;28;20046;-76
2022/11/02 06:00:16;;;;;;;213.30;204.75;;;;;;;9.38;100.00;101187.69;5055501;28;20036;-76
2022/11/02 06:02:41;;;;;;;173.65;166.32;;;;;;;9.26;100.00;101172.97;5075942;28;20545;-76
2022/11/02 06:05:07;;;;;;;92.03;88.60;;;;;;;9.40;100.00;101191.03;5078881;28;20139;-76
2022/11/02 06:07:32;;;;;;;94.18;90.72;;;;;;;9.37;100.00;101193.13;5060580;28;20032;-76
2022/11/02 06:09:58;;;;;;;95.72;91.80;;;;;;;9.40;100.00;101195.47;5056649;28;20113;-76
2022/11/02 06:12:23;;;;;;;148.43;142.95;;;;;;;9.44;100.00;101202.13;5059193;28;20491;-76
2022/11/02 06:14:48;;;;;;;99.38;95.57;;;;;;;9.52;100.00;101209.38;5058702;28;20087;-76
2022/11/02 06:17:14;;;;;;;145.60;140.13;;;;;;;9.39;100.00;101205.19;5059155;28;20044;-76
2022/11/02 06:19:39;;;;;;;165.40;158.55;;;;;;;9.46;100.00;101211.56;5041101;28;20085;-76
2022/11/02 06:22:05;;;;;;;104.63;100.60;;;;;;;9.46;100.00;101216.84;5059325;28;20036;-77
2022/11/02 06:24:30;;;;;;;108.85;104.80;;;;;;;9.48;100.00;101214.06;5072733;28;20038;-76
2022/11/02 06:26:55;;;;;;;134.35;129.25;;;;;;;9.52;100.00;101227.84;5073775;28;20598;-77
2022/11/02 06:29:21;;;;;;;145.52;139.98;;;;;;;9.47;100.00;101218.53;5071526;28;20403;-76
2022/11/02 06:31:46;;;;;;;102.00;97.53;;;;;;;9.52;100.00;101231.28;5040648;28;20128;-76
2022/11/02 06:34:11;;;;;;;148.95;143.35;;;;;;;9.55;100.00;101251.25;5073015;28;20055;-76
2022/11/02 06:36:37;;;;;;;104.38;100.40;;;;;;;9.56;100.00;101251.13;5057698;28;20028;-77
2022/11/02 06:39:02;;;;;;;136.10;130.70;;;;;;;9.55;100.00;101246.81;5054866;28;20040;-77
2022/11/02 06:41:27;;;;;;;207.57;198.52;;;;;;;9.55;100.00;101252.09;5056905;28;20045;-76
2022/11/02 06:43:53;;;;;;;107.45;103.03;;;;;;;9.45;100.00;101241.53;5075231;28;20479;-76
2022/11/02 06:46:18;;;;;;;133.50;128.05;;;;;;;9.52;100.00;101273.44;5053488;28;20051;-76
2022/11/02 06:48:46;;;;;;;134.38;128.50;;;;;;;9.54;100.00;101274.16;5071498;28;20131;-76
2022/11/02 06:51:11;;;;;;;110.18;105.95;;;;;;;9.52;100.00;101262.91;5055870;28;20043;-76
2022/11/02 06:53:37;;;;;;;105.38;100.85;;;;;;;9.54;100.00;101289.09;5075736;28;20422;-76
2022/11/02 06:56:02;;;;;;;109.57;105.63;;;;;;;9.57;100.00;101286.22;5074456;28;20032;-77
2022/11/02 06:58:28;;;;;;;126.72;122.03;;;;;;;9.47;100.00;101294.06;5025459;28;20066;-77
2022/11/02 07:01:01;;;;;;;119.13;114.35;;;;;;;9.55;100.00;101296.06;5054016;28;20040;-77
2022/11/02 07:03:27;;;;;;;93.13;89.57;;;;;;;9.58;100.00;101314.22;5057650;28;20028;-77
2022/11/02 07:05:54;;;;;;;109.25;105.22;;;;;;;9.58;100.00;101311.59;5073920;28;20024;-76
2022/11/02 07:08:20;;;;;;;124.75;120.13;;;;;;;9.56;100.00;101318.78;5074158;28;20028;-76
2022/11/02 07:10:46;;;;;;;128.77;124.15;;;;;;;9.54;100.00;101318.94;5058180;28;20031;-76
2022/11/02 07:13:12;;;;;;;93.95;90.47;;;;;;;9.65;100.00;101336.47;5054797;28;20143;-76
2022/11/02 07:15:38;;;;;;;101.72;97.78;;;;;;;9.69;100.00;101329.97;5051490;28;20027;-76
2022/11/02 07:18:05;;;;;;;118.20;113.97;;;;;;;9.73;100.00;101339.25;5057899;28;20107;-76
2022/11/02 07:20:31;;;;;;;116.57;111.78;;;;;;;9.78;100.00;101336.25;5073784;28;20024;-77
2022/11/02 07:22:59;;;;;;;125.45;120.45;;;;;;;9.86;100.00;101342.53;5072010;28;20034;-77
2022/11/02 07:25:26;;;;;;;95.88;92.22;;;;;;;9.86;100.00;101350.44;5075138;28;20032;-76
2022/11/02 07:27:52;;;;;;;88.88;85.68;;;;;;;9.82;100.00;101337.63;5074408;28;20028;-76
2022/11/02 07:30:17;;;;;;;91.05;87.63;;;;;;;10.00;100.00;101348.41;5033075;28;20039;-76
2022/11/02 07:32:44;;;;;;;90.60;87.28;;;;;;;10.07;100.00;101357.44;5068546;28;20040;-76
2022/11/02 07:35:11;;;;;;;93.63;90.32;;;;;;;10.00;100.00;101364.22;5065196;28;20119;-77
2022/11/02 07:37:37;;;;;;;62.83;60.55;;;;;;;9.93;100.00;101361.28;5038188;28;20025;-76
2022/11/02 07:40:04;;;;;;;62.38;60.05;;;;;;;9.99;100.00;101375.72;5071051;28;20024;-75
2022/11/02 07:42:30;;;;;;;75.22;71.57;;;;;;;10.01;100.00;101373.78;5070600;28;20399;-75
2022/11/02 07:44:55;;;;;;;93.65;89.55;;;;;;;10.01;100.00;101368.50;5072810;28;20034;-75
2022/11/02 07:47:20;;;;;;;52.13;50.13;;;;;;;9.92;100.00;101364.88;5037765;28;20146;-75
2022/11/02 07:49:46;;;;;;;52.80;50.80;;;;;;;10.00;100.00;101378.25;5053385;28;20403;-75
2022/11/02 07:52:11;;;;;;;55.75;53.17;;;;;;;10.15;100.00;101386.63;5052904;28;20036;-75
2022/11/02 07:54:37;;;;;;;69.50;67.00;;;;;;;10.58;100.00;101384.66;5055612;28;20368;-75
2022/11/02 07:57:02;;;;;;;52.40;49.92;;;;;;;10.89;100.00;101378.31;5072800;28;20035;-77
2022/11/02 07:59:27;;;;;;;41.38;39.67;;;;;;;10.81;100.00;101372.03;5056022;28;20038;-77
2022/11/02 08:01:53;;;;;;;17.05;14.07;;;;;;;10.67;100.00;101397.88;5038483;28;20091;-77
2022/11/02 08:04:18;;;;;;;11.68;10.82;;;;;;;10.60;100.00;101380.06;5071658;28;20051;-76
2022/11/02 08:06:44;;;;;;;17.45;16.08;;;;;;;10.91;100.00;101394.84;5050437;28;20519;-76
2022/11/02 08:09:09;;;;;;;13.85;13.05;;;;;;;10.79;100.00;101416.22;5071206;28;20051;-76
2022/11/02 08:11:34;;;;;;;22.55;21.10;;;;;;;11.24;100.00;101423.63;5053572;28;20373;-76
2022/11/02 08:14:01;;;;;;;48.55;46.17;;;;;;;11.52;99.54;101435.13;5071071;28;20044;-76
2022/11/02 08:16:27;;;;;;;17.92;17.23;;;;;;;11.35;98.81;101433.22;5051305;28;20063;-76
2022/11/02 08:18:52;;;;;;;15.60;14.80;;;;;;;11.30;98.25;101421.25;5055222;28;20451;-77
2022/11/02 08:21:17;;;;;;;15.70;15.07;;;;;;;11.39;98.10;101439.84;5053675;28;20078;-76
2022/11/02 08:23:43;;;;;;;19.00;18.15;;;;;;;11.47;97.55;101427.59;5052373;28;20036;-76
2022/11/02 08:26:08;;;;;;;11.23;10.63;;;;;;;11.63;96.76;101437.59;5036461;28;20066;-76
2022/11/02 08:28:35;;;;;;;10.00;9.35;;;;;;;11.59;98.39;101445.97;5038397;28;20043;-76
2022/11/02 08:31:01;;;;;;;10.10;9.50;;;;;;;11.53;98.38;101442.06;5068393;28;20032;-76
2022/11/02 08:33:27;;;;;;;9.27;8.93;;;;;;;11.47;98.97;101447.91;5070006;28;20259;-76
2022/11/02 08:35:52;;;;;;;13.10;12.10;;;;;;;11.75;99.83;101464.72;5050564;28;20531;-76
2022/11/02 08:38:21;;;;;;;12.60;11.93;;;;;;;11.62;98.43;101467.66;5066687;28;20111;-76
2022/11/02 08:40:48;;;;;;;9.73;9.02;;;;;;;11.62;97.67;101467.66;5052189;28;20025;-76
2022/11/02 08:43:14;;;;;;;7.95;7.55;;;;;;;11.62;97.78;101461.53;5036234;28;20047;-76
2022/11/02 08:45:41;;;;;;;7.90;7.35;;;;;;;11.59;96.26;101448.63;5051591;28;20032;-76
2022/11/02 08:48:07;;;;;;;9.93;9.27;;;;;;;11.68;95.67;101461.81;5069369;28;20063;-75
2022/11/02 08:50:33;;;;;;;10.18;9.70;;;;;;;11.86;98.00;101469.00;5051610;28;20100;-76
2022/11/02 08:52:59;;;;;;;13.18;12.48;;;;;;;12.09;98.45;101467.72;5052256;28;20085;-76
2022/11/02 08:55:24;;;;;;;10.95;10.52;;;;;;;12.10;98.06;101466.72;5052202;28;20512;-76
2022/11/02 08:57:55;;;;;;;14.38;13.38;;;;;;;12.08;97.47;101478.44;5054236;28;20016;-77
2022/11/02 09:00:24;;;;;;;8.27;7.93;;;;;;;11.83;97.33;101490.47;5069280;28;20028;-77
2022/11/02 09:03:01;;;;;;;8.43;8.02;;;;;;;11.77;97.32;101502.44;5073364;28;20095;-76
2022/11/02 09:05:29;;;;;;;9.90;9.40;;;;;;;11.78;98.04;101495.31;5069462;28;20481;-76
2022/11/02 09:08:00;;;;;;;10.45;9.70;;;;;;;11.81;98.34;101498.53;5073808;28;20036;-76
2022/11/02 09:10:29;;;;;;;9.07;8.68;;;;;;;11.79;97.43;101497.84;5069704;28;20028;-76
2022/11/02 09:12:54;;;;;;;11.18;8.90;;;;;;;11.53;97.54;101516.91;5071012;28;20380;-76
2022/11/02 09:15:20;;;;;;;9.50;8.80;;;;;;;11.49;98.62;101509.41;5072813;28;20032;-76
2022/11/02 09:17:49;;;;;;;12.50;12.05;;;;;;;12.06;97.96;101517.44;5036987;28;20033;-76
2022/11/02 09:20:15;;;;;;;14.18;13.27;;;;;;;12.75;97.42;101530.25;5068938;28;20024;-77
2022/11/02 09:22:41;;;;;;;14.45;13.55;;;;;;;14.17;92.43;101533.03;5053443;28;20210;-77
2022/11/02 09:25:06;;;;;;;9.05;8.52;;;;;;;15.83;84.88;101531.56;5021547;28;20028;-77
2022/11/02 09:27:32;;;;;;;5.38;4.88;;;;;;;17.06;75.74;101539.16;5073288;28;20031;-77
2022/11/02 09:29:57;;;;;;;1.95;1.75;;;;;;;17.47;71.60;101535.38;5057129;28;20059;-77
2022/11/02 09:32:23;;;;;;;5.10;1.98;;;;;;;18.14;69.65;101544.47;5041615;28;20024;-77
2022/11/02 09:34:49;;;;;;;3.42;1.52;;;;;;;18.17;67.33;101541.44;5056264;28;20040;-77
2022/11/02 09:37:15;;;;;;;3.28;1.35;;;;;;;18.98;65.82;101558.38;5042102;28;20055;-77
2022/11/02 09:39:41;;;;;;;4.05;1.98;;;;;;;18.38;65.64;101557.59;5076710;28;20087;-77
2022/11/02 09:42:19;;;;;;;2.58;1.55;;;;;;;18.58;65.10;101573.91;5075131;28;20059;-77
2022/11/02 09:45:00;;;;;;;4.65;1.42;;;;;;;18.26;66.08;101567.06;5053837;28;20020;-77
2022/11/02 09:47:28;;;;;;;2.40;1.60;;;;;;;18.59;64.88;101566.69;5073760;28;20024;-77
2022/11/02 09:49:55;;;;;;;3.47;1.98;;;;;;;19.57;63.69;101581.41;5055867;28;20530;-77
2022/11/02 09:52:30;;;;;;;4.35;1.25;;;;;;;20.05;61.23;101583.50;5039199;28;20138;-77
2022/11/02 09:54:59;;;;;;;2.97;1.23;;;;;;;18.42;64.38;101592.78;5074093;28;20020;-77
2022/11/02 09:57:31;;;;;;;2.25;1.50;;;;;;;17.45;66.93;101596.09;5055857;28;20088;-77
2022/11/02 10:00:00;;;;;;;4.55;1.50;;;;;;;17.31;68.92;101604.84;5056263;28;20028;-77
2022/11/02 10:02:46;;;;;;;6.80;1.85;;;;;;;17.97;67.75;101608.75;5069791;28;20066;-77
2022/11/02 10:05:17;;;;;;;4.90;1.60;;;;;;;17.69;68.58;101611.09;5051342;28;20119;-77
2022/11/02 10:07:45;;;;;;;3.92;1.60;;;;;;;17.48;67.79;101617.09;5071516;28;20039;-77
2022/11/02 10:10:22;;;;;;;8.52;2.08;;;;;;;16.50;69.17;101612.16;5074854;28;20285;-77
2022/11/02 10:13:05;;;;;;;3.30;1.20;;;;;;;15.45;72.12;101631.44;5056553;28;20046;-76
2022/11/02 10:15:38;;;;;;;4.13;1.10;;;;;;;14.90;74.21;101608.00;5055638;28;20020;-76
2022/11/02 10:18:12;;;;;;;9.98;2.38;;;;;;;14.96;75.17;101620.63;5040834;28;20086;-76
2022/11/02 10:20:40;;;;;;;9.35;2.97;;;;;;;15.03;76.52;101634.97;5072892;28;20081;-76
2022/11/02 10:23:33;;;;;;;3.65;2.15;;;;;;;15.38;78.05;101617.13;5073520;28;20021;-76
2022/11/02 10:26:01;;;;;;;4.85;4.05;;;;;;;17.27;75.35;101645.22;5068572;28;20040;-76
2022/11/02 10:28:31;;;;;;;6.32;2.33;;;;;;;18.52;68.32;101635.28;5040790;28;20021;-76
2022/11/02 10:30:57;;;;;;;11.27;4.57;;;;;;;19.40;63.39;101642.44;5056018;28;20487;-77
2022/11/02 10:33:27;;;;;;;6.93;2.40;;;;;;;18.71;63.26;101645.44;5073821;28;20023;-77
2022/11/02 10:36:30;;;;;;;8.00;3.60;;;;;;;18.85;62.66;101646.47;5072884;28;20083;-77
2022/11/02 10:39:10;;;;;;;4.75;1.77;;;;;;;18.19;63.09;101655.13;5068813;28;20121;-76
2022/11/02 10:41:57;;;;;;;4.03;1.80;;;;;;;18.79;61.68;101673.94;5070812;28;20024;-76
2022/11/02 10:44:48;;;;;;;6.55;2.33;;;;;;;17.64;64.24;101674.88;5057391;28;20040;-77
2022/11/02 10:47:21;;;;;;;4.47;1.88;;;;;;;16.91;65.10;101663.53;5054917;28;20032;-76
2022/11/02 10:50:10;;;;;;;3.80;1.98;;;;;;;16.25;65.60;101679.63;5071418;28;20035;-76
2022/11/02 10:52:42;;;;;;;5.07;1.30;;;;;;;15.87;67.45;101657.13;5062255;28;20625;-77
2022/11/02 10:55:18;;;;;;;2.47;1.50;;;;;;;16.19;67.41;101674.13;5074189;28;20078;-77
2022/11/02 10:57:44;;;;;;;6.13;1.92;;;;;;;16.72;65.40;101682.56;5071824;28;20082;-77
2022/11/02 11:00:32;;;;;;;1.80;0.95;;;;;;;16.73;65.95;101686.91;5039419;28;20434;-77
2022/11/02 11:03:13;;;;;;;2.00;1.58;;;;;;;16.71;65.77;101688.91;5053330;28;20122;-75
2022/11/02 11:05:41;;;;;;;7.78;1.70;;;;;;;16.86;66.16;101706.72;5074337;28;20064;-75
2022/11/02 11:08:28;;;;;;;6.00;2.63;;;;;;;17.25;65.26;101707.78;5074867;28;20107;-75
2022/11/02 11:10:53;;;;;;;4.22;2.13;;;;;;;16.91;62.66;101706.22;5071964;28;20483;-75
2022/11/02 11:13:22;;;;;;;3.65;1.35;;;;;;;16.65;63.64;101727.72;5038938;28;20063;-74
2022/11/02 11:15:53;;;;;;;3.78;1.17;;;;;;;16.59;63.89;101709.72;5053564;28;20024;-73
2022/11/02 11:18:20;;;;;;;2.97;1.30;;;;;;;16.50;64.34;101700.09;5052332;28;20110;-74
2022/11/02 11:20:46;;;;;;;4.22;1.45;;;;;;;16.74;63.85;101694.72;5057421;28;20070;-74
2022/11/02 11:23:18;;;;;;;3.28;1.27;;;;;;;16.41;63.53;101710.75;5056265;28;20440;-73
2022/11/02 11:26:05;;;;;;;4.35;0.88;;;;;;;16.33;64.04;101718.75;5072382;28;20039;-74
2022/11/02 11:28:35;;;;;;;9.88;1.95;;;;;;;16.45;65.10;101711.25;5051344;28;20033;-74